createdAt,value
2019-04-30T00:02:45.391Z,8.87
2019-04-30T00:12:45.762Z,8.90
2019-04-30T00:22:47.029Z,8.95
2019-04-30T00:32:46.885Z,8.96
2019-04-30T00:42:45.757Z,8.98
2019-04-30T00:52:45.779Z,8.99
2019-04-30T01:02:45.524Z,8.99
2019-04-30T01:12:47.407Z,8.99
2019-04-30T01:22:43.669Z,8.99
2019-04-30T01:32:44.361Z,8.98
2019-04-30T01:52:42.056Z,8.85
2019-04-30T02:02:42.955Z,8.87
2019-04-30T02:12:41.823Z,8.88
2019-04-30T02:22:41.889Z,8.83
2019-04-30T02:32:42.140Z,8.85
2019-04-30T02:42:41.051Z,8.85
2019-04-30T02:52:40.828Z,8.78
2019-04-30T03:02:41.878Z,8.70
2019-04-30T03:12:41.886Z,8.65
2019-04-30T03:22:41.906Z,8.68
2019-04-30T03:42:40.598Z,8.70
2019-04-30T03:52:41.027Z,8.70
2019-04-30T04:02:40.706Z,8.66
2019-04-30T04:12:39.600Z,8.54
2019-04-30T04:22:40.344Z,8.38
2019-04-30T04:32:40.527Z,8.26
2019-04-30T04:42:39.606Z,8.11
2019-04-30T04:52:39.542Z,8.07
2019-04-30T05:02:39.583Z,7.97
2019-04-30T05:12:37.924Z,8.04
2019-04-30T05:22:36.084Z,8.32
2019-04-30T05:32:39.074Z,8.62
2019-04-30T05:52:36.444Z,8.66
2019-04-30T06:02:36.223Z,8.79
2019-04-30T06:12:35.520Z,9.06
2019-04-30T06:22:35.246Z,9.20
2019-04-30T06:32:35.460Z,9.32
2019-04-30T06:42:35.310Z,9.59
2019-04-30T06:52:34.240Z,9.63
2019-04-30T07:12:34.182Z,10.77
2019-04-30T07:22:39.751Z,11.33
2019-04-30T07:42:36.341Z,10.32
2019-04-30T08:22:32.400Z,11.32
2019-04-30T08:42:34.141Z,12.84
2019-04-30T08:52:32.455Z,13.80
2019-04-30T09:12:31.622Z,13.77
2019-04-30T09:22:31.531Z,13.57
2019-04-30T09:42:31.036Z,14.38
2019-04-30T09:52:31.147Z,14.20
2019-04-30T10:02:30.559Z,14.64
2019-04-30T10:12:29.592Z,15.16
2019-04-30T10:22:28.572Z,14.81
2019-04-30T10:32:29.955Z,15.36
2019-04-30T10:42:28.961Z,15.60
2019-04-30T10:52:29.274Z,15.20
2019-04-30T11:02:31.134Z,15.53
2019-04-30T11:12:29.207Z,16.00
2019-04-30T11:22:27.806Z,16.54
2019-04-30T11:32:26.818Z,15.96
2019-04-30T11:42:27.685Z,16.13
2019-04-30T11:52:29.129Z,15.82
2019-04-30T12:02:29.319Z,15.66
2019-04-30T12:12:29.801Z,16.39
2019-04-30T12:32:29.854Z,16.98
2019-04-30T12:42:28.664Z,17.16
2019-04-30T12:52:26.788Z,17.13
2019-04-30T13:12:28.249Z,17.40
2019-04-30T13:22:29.009Z,16.11
2019-04-30T13:42:29.240Z,17.78
2019-04-30T13:52:28.881Z,17.21
2019-04-30T14:02:27.010Z,18.27
2019-04-30T14:12:26.067Z,18.43
2019-04-30T14:22:25.250Z,18.31
2019-04-30T14:42:25.734Z,18.72
2019-04-30T14:52:24.239Z,19.37
2019-04-30T15:02:23.167Z,18.88
2019-04-30T15:22:22.164Z,18.81
2019-04-30T15:32:21.977Z,19.47
2019-04-30T15:52:22.041Z,21.71
2019-04-30T16:02:22.114Z,19.36
2019-04-30T16:42:19.949Z,16.78
2019-04-30T16:52:21.024Z,16.92
2019-04-30T17:22:21.027Z,16.18
2019-04-30T17:32:20.046Z,15.55
2019-04-30T17:42:20.110Z,14.94
2019-04-30T17:52:20.505Z,14.27
2019-04-30T18:12:19.549Z,13.50
2019-04-30T18:22:19.476Z,13.12
2019-04-30T18:32:19.263Z,12.84
2019-04-30T18:52:16.335Z,12.34
2019-04-30T19:02:16.331Z,12.14
2019-04-30T19:22:16.268Z,11.60
2019-04-30T19:32:16.257Z,11.34
2019-04-30T19:42:18.657Z,11.10
2019-04-30T19:52:16.459Z,10.78
2019-04-30T20:02:16.419Z,10.59
2019-04-30T20:32:20.890Z,10.60
2019-04-30T20:52:19.010Z,9.63
2019-04-30T21:22:19.452Z,9.18
2019-04-30T21:42:16.885Z,8.78
2019-04-30T22:22:19.174Z,7.41
2019-04-30T22:32:16.787Z,7.57
2019-04-30T23:02:14.590Z,6.53
2019-04-30T23:22:13.651Z,6.89
2019-04-30T23:32:13.636Z,6.34
